sensor_id;sensor_type;location;lat;lon;timestamp;pressure;altitude;pressure_sealevel;temperature;humidity
56630;BME280;42502;40.732;-74.254;2022-12-18T00:01:57;99986.91;;;16.70;39.77
56630;BME280;42502;40.732;-74.254;2022-12-18T00:04:01;100001.78;;;16.74;39.73
56630;BME280;42502;40.732;-74.254;2022-12-18T00:06:02;99993.66;;;16.69;39.85
56630;BME280;42502;40.732;-74.254;2022-12-18T00:08:03;100015.28;;;16.72;39.46
56630;BME280;42502;40.732;-74.254;2022-12-18T00:10:05;100010.50;;;16.73;39.92
56630;BME280;42502;40.732;-74.254;2022-12-18T00:12:06;100017.22;;;16.72;39.94
56630;BME280;42502;40.732;-74.254;2022-12-18T00:14:12;100010.03;;;16.70;39.62
56630;BME280;42502;40.732;-74.254;2022-12-18T00:16:16;100002.47;;;16.71;39.94
56630;BME280;42502;40.732;-74.254;2022-12-18T00:18:21;100001.69;;;16.70;40.15
56630;BME280;42502;40.732;-74.254;2022-12-18T00:20:22;100009.22;;;16.70;39.92
56630;BME280;42502;40.732;-74.254;2022-12-18T00:22:25;100005.97;;;16.68;39.91
56630;BME280;42502;40.732;-74.254;2022-12-18T00:24:26;100001.06;;;16.65;40.16
56630;BME280;42502;40.732;-74.254;2022-12-18T00:26:33;100012.69;;;16.67;39.89
56630;BME280;42502;40.732;-74.254;2022-12-18T00:28:34;100015.97;;;16.69;40.29
56630;BME280;42502;40.732;-74.254;2022-12-18T00:30:35;100003.06;;;16.64;40.21
56630;BME280;42502;40.732;-74.254;2022-12-18T00:32:36;100011.88;;;16.66;40.28
56630;BME280;42502;40.732;-74.254;2022-12-18T00:34:37;100016.66;;;16.66;40.17
56630;BME280;42502;40.732;-74.254;2022-12-18T00:36:39;100021.75;;;16.64;40.14
56630;BME280;42502;40.732;-74.254;2022-12-18T00:38:41;100025.03;;;16.66;40.25
56630;BME280;42502;40.732;-74.254;2022-12-18T00:40:42;100012.44;;;16.60;40.60
56630;BME280;42502;40.732;-74.254;2022-12-18T00:42:43;100008.47;;;16.61;40.51
56630;BME280;42502;40.732;-74.254;2022-12-18T00:44:56;100022.91;;;16.63;40.24
56630;BME280;42502;40.732;-74.254;2022-12-18T00:47:00;100006.25;;;16.54;40.35
56630;BME280;42502;40.732;-74.254;2022-12-18T00:49:01;100016.03;;;16.60;40.52
56630;BME280;42502;40.732;-74.254;2022-12-18T00:51:04;100014.06;;;16.61;40.50
56630;BME280;42502;40.732;-74.254;2022-12-18T00:53:10;100019.50;;;16.57;40.37
56630;BME280;42502;40.732;-74.254;2022-12-18T00:55:12;100018.03;;;16.60;40.53
56630;BME280;42502;40.732;-74.254;2022-12-18T00:57:16;100020.81;;;16.60;40.33
56630;BME280;42502;40.732;-74.254;2022-12-18T00:59:17;100025.56;;;16.59;40.33
56630;BME280;42502;40.732;-74.254;2022-12-18T01:01:18;100011.50;;;16.56;40.53
56630;BME280;42502;40.732;-74.254;2022-12-18T01:03:20;100021.16;;;16.58;40.36
56630;BME280;42502;40.732;-74.254;2022-12-18T01:05:23;100021.00;;;16.55;40.39
56630;BME280;42502;40.732;-74.254;2022-12-18T01:07:24;100015.78;;;16.53;40.41
56630;BME280;42502;40.732;-74.254;2022-12-18T01:09:25;100023.13;;;16.58;40.29
56630;BME280;42502;40.732;-74.254;2022-12-18T01:11:26;100020.19;;;16.54;40.45
56630;BME280;42502;40.732;-74.254;2022-12-18T01:13:30;100031.81;;;16.56;40.30
56630;BME280;42502;40.732;-74.254;2022-12-18T01:15:31;100031.00;;;16.56;40.45
56630;BME280;42502;40.732;-74.254;2022-12-18T01:17:32;100024.03;;;16.49;40.50
56630;BME280;42502;40.732;-74.254;2022-12-18T01:19:33;100017.28;;;16.50;40.63
56630;BME280;42502;40.732;-74.254;2022-12-18T01:21:35;100030.06;;;16.51;40.55
56630;BME280;42502;40.732;-74.254;2022-12-18T01:23:36;100032.84;;;16.51;40.60
56630;BME280;42502;40.732;-74.254;2022-12-18T01:25:37;100036.13;;;16.54;40.56
56630;BME280;42502;40.732;-74.254;2022-12-18T01:27:38;100040.88;;;16.53;40.44
56630;BME280;42502;40.732;-74.254;2022-12-18T01:29:39;100045.97;;;16.51;40.51
56630;BME280;42502;40.732;-74.254;2022-12-18T01:31:40;100045.19;;;16.50;40.74
56630;BME280;42502;40.732;-74.254;2022-12-18T01:33:42;100049.13;;;16.49;40.50
56630;BME280;42502;40.732;-74.254;2022-12-18T01:35:43;100054.69;;;16.49;40.59
56630;BME280;42502;40.732;-74.254;2022-12-18T01:37:44;100047.00;;;16.46;40.62
56630;BME280;42502;40.732;-74.254;2022-12-18T01:39:45;100043.06;;;16.47;40.69
56630;BME280;42502;40.732;-74.254;2022-12-18T01:41:47;100045.03;;;16.47;40.42
56630;BME280;42502;40.732;-74.254;2022-12-18T01:44:46;100053.38;;;16.47;40.84
56630;BME280;42502;40.732;-74.254;2022-12-18T01:46:24;100055.84;;;16.48;40.63
56630;BME280;42502;40.732;-74.254;2022-12-18T01:48:26;100063.06;;;16.49;40.53
56630;BME280;42502;40.732;-74.254;2022-12-18T01:50:32;100061.75;;;16.47;40.33
56630;BME280;42502;40.732;-74.254;2022-12-18T01:52:34;100060.94;;;16.46;40.76
56630;BME280;42502;40.732;-74.254;2022-12-18T01:54:36;100066.88;;;16.45;40.56
56630;BME280;42502;40.732;-74.254;2022-12-18T01:56:37;100063.63;;;16.43;40.63
56630;BME280;42502;40.732;-74.254;2022-12-18T02:00:48;100056.84;;;16.44;40.42
56630;BME280;42502;40.732;-74.254;2022-12-18T02:02:49;100054.06;;;16.44;40.57
56630;BME280;42502;40.732;-74.254;2022-12-18T02:04:50;100066.41;;;16.43;40.82
56630;BME280;42502;40.732;-74.254;2022-12-18T02:09:20;100061.13;;;16.41;40.78
56630;BME280;42502;40.732;-74.254;2022-12-18T02:16:07;100059.03;;;16.38;40.63
56630;BME280;42502;40.732;-74.254;2022-12-18T02:18:26;100063.47;;;16.39;40.90
56630;BME280;42502;40.732;-74.254;2022-12-18T02:20:35;100055.09;;;16.39;40.49
56630;BME280;42502;40.732;-74.254;2022-12-18T02:23:01;100062.66;;;16.39;40.71
56630;BME280;42502;40.732;-74.254;2022-12-18T02:27:32;100069.38;;;16.38;40.67
56630;BME280;42502;40.732;-74.254;2022-12-18T02:29:44;100066.59;;;16.38;40.61
56630;BME280;42502;40.732;-74.254;2022-12-18T02:31:56;100071.19;;;16.33;40.53
56630;BME280;42502;40.732;-74.254;2022-12-18T02:34:00;100082.84;;;16.36;40.35
56630;BME280;42502;40.732;-74.254;2022-12-18T02:36:03;100092.81;;;16.37;40.58
56630;BME280;42502;40.732;-74.254;2022-12-18T02:38:05;100085.97;;;16.34;40.77
56630;BME280;42502;40.732;-74.254;2022-12-18T02:40:08;100082.34;;;16.33;40.63
56630;BME280;42502;40.732;-74.254;2022-12-18T02:42:10;100084.81;;;16.35;40.68
56630;BME280;42502;40.732;-74.254;2022-12-18T02:44:13;100076.78;;;16.33;40.55
56630;BME280;42502;40.732;-74.254;2022-12-18T02:46:36;100083.88;;;16.31;40.52
56630;BME280;42502;40.732;-74.254;2022-12-18T02:48:38;100076.78;;;16.33;40.28
56630;BME280;42502;40.732;-74.254;2022-12-18T02:50:45;100076.31;;;16.31;40.12
56630;BME280;42502;40.732;-74.254;2022-12-18T02:57:51;100077.13;;;16.32;40.40
56630;BME280;42502;40.732;-74.254;2022-12-18T03:00:18;100075.00;;;16.29;40.54
56630;BME280;42502;40.732;-74.254;2022-12-18T03:02:26;100084.69;;;16.31;40.20
56630;BME280;42502;40.732;-74.254;2022-12-18T03:07:03;100072.22;;;16.29;40.19
56630;BME280;42502;40.732;-74.254;2022-12-18T03:09:10;100071.06;;;16.30;40.33
56630;BME280;42502;40.732;-74.254;2022-12-18T03:11:14;100074.66;;;16.30;40.14
56630;BME280;42502;40.732;-74.254;2022-12-18T03:13:28;100074.53;;;16.27;40.29
56630;BME280;42502;40.732;-74.254;2022-12-18T03:15:47;100078.13;;;16.27;40.05
56630;BME280;42502;40.732;-74.254;2022-12-18T03:17:59;100077.34;;;16.27;40.04
56630;BME280;42502;40.732;-74.254;2022-12-18T03:20:17;100089.28;;;16.27;40.20
56630;BME280;42502;40.732;-74.254;2022-12-18T03:22:23;100087.34;;;16.28;40.01
56630;BME280;42502;40.732;-74.254;2022-12-18T03:24:26;100097.19;;;16.25;40.25
56630;BME280;42502;40.732;-74.254;2022-12-18T03:26:29;100100.78;;;16.26;40.13
56630;BME280;42502;40.732;-74.254;2022-12-18T03:28:33;100095.88;;;16.23;39.91
56630;BME280;42502;40.732;-74.254;2022-12-18T03:30:37;100098.00;;;16.26;40.21
56630;BME280;42502;40.732;-74.254;2022-12-18T03:32:48;100098.31;;;16.24;39.83
56630;BME280;42502;40.732;-74.254;2022-12-18T03:34:51;100097.84;;;16.22;40.04
56630;BME280;42502;40.732;-74.254;2022-12-18T03:36:56;100104.25;;;16.23;40.20
56630;BME280;42502;40.732;-74.254;2022-12-18T03:38:58;100098.00;;;16.26;39.82
56630;BME280;42502;40.732;-74.254;2022-12-18T03:43:19;100090.97;;;16.20;40.15
56630;BME280;42502;40.732;-74.254;2022-12-18T03:45:31;100095.06;;;16.22;39.77
56630;BME280;42502;40.732;-74.254;2022-12-18T03:52:37;100087.38;;;16.19;40.05
56630;BME280;42502;40.732;-74.254;2022-12-18T03:54:38;100087.25;;;16.15;40.03
56630;BME280;42502;40.732;-74.254;2022-12-18T03:57:03;100088.06;;;16.16;40.11
56630;BME280;42502;40.732;-74.254;2022-12-18T03:59:08;100083.97;;;16.13;40.17
56630;BME280;42502;40.732;-74.254;2022-12-18T04:01:13;100096.09;;;16.17;39.95
56630;BME280;42502;40.732;-74.254;2022-12-18T04:03:16;100098.88;;;16.17;39.87
56630;BME280;42502;40.732;-74.254;2022-12-18T04:05:19;100093.63;;;16.16;40.41
56630;BME280;42502;40.732;-74.254;2022-12-18T04:07:21;100087.94;;;16.12;40.19
56630;BME280;42502;40.732;-74.254;2022-12-18T04:09:23;100085.97;;;16.13;40.29
56630;BME280;42502;40.732;-74.254;2022-12-18T04:11:24;100077.09;;;16.11;40.12
56630;BME280;42502;40.732;-74.254;2022-12-18T04:13:29;100078.41;;;16.13;40.12
56630;BME280;42502;40.732;-74.254;2022-12-18T04:15:33;100067.94;;;16.10;40.20
56630;BME280;42502;40.732;-74.254;2022-12-18T04:17:35;100072.50;;;16.15;40.36
56630;BME280;42502;40.732;-74.254;2022-12-18T04:19:36;100064.81;;;16.12;40.27
56630;BME280;42502;40.732;-74.254;2022-12-18T04:21:36;100070.03;;;16.13;40.28
56630;BME280;42502;40.732;-74.254;2022-12-18T04:23:37;100068.09;;;16.14;40.17
56630;BME280;42502;40.732;-74.254;2022-12-18T04:25:38;100053.19;;;16.10;40.33
56630;BME280;42502;40.732;-74.254;2022-12-18T04:27:39;100054.81;;;16.11;40.25
56630;BME280;42502;40.732;-74.254;2022-12-18T04:29:43;100064.69;;;16.08;40.19
56630;BME280;42502;40.732;-74.254;2022-12-18T04:31:44;100061.41;;;16.06;40.10
56630;BME280;42502;40.732;-74.254;2022-12-18T04:33:48;100077.94;;;16.11;40.26
56630;BME280;42502;40.732;-74.254;2022-12-18T04:35:49;100085.47;;;16.11;40.37
56630;BME280;42502;40.732;-74.254;2022-12-18T04:37:50;100067.81;;;16.07;40.25
56630;BME280;42502;40.732;-74.254;2022-12-18T04:39:50;100083.00;;;16.09;40.32
56630;BME280;42502;40.732;-74.254;2022-12-18T04:41:52;100088.59;;;16.09;40.61
56630;BME280;42502;40.732;-74.254;2022-12-18T04:43:52;100077.66;;;16.04;40.40
56630;BME280;42502;40.732;-74.254;2022-12-18T04:45:53;100085.66;;;16.06;40.22
56630;BME280;42502;40.732;-74.254;2022-12-18T04:47:54;100096.13;;;16.09;40.64
56630;BME280;42502;40.732;-74.254;2022-12-18T04:49:57;100086.13;;;16.08;40.40
56630;BME280;42502;40.732;-74.254;2022-12-18T04:51:58;100089.25;;;16.06;40.49
56630;BME280;42502;40.732;-74.254;2022-12-18T04:53:59;100085.53;;;16.02;40.36
56630;BME280;42502;40.732;-74.254;2022-12-18T04:56:04;100088.47;;;16.06;40.29
56630;BME280;42502;40.732;-74.254;2022-12-18T04:58:05;100101.25;;;16.07;40.39
56630;BME280;42502;40.732;-74.254;2022-12-18T05:00:07;100098.28;;;16.03;40.33
56630;BME280;42502;40.732;-74.254;2022-12-18T05:02:08;100093.91;;;16.02;40.25
56630;BME280;42502;40.732;-74.254;2022-12-18T05:04:11;100101.09;;;16.03;40.29
56630;BME280;42502;40.732;-74.254;2022-12-18T05:06:12;100099.13;;;16.04;40.48
56630;BME280;42502;40.732;-74.254;2022-12-18T05:08:13;100094.69;;;16.03;40.26
56630;BME280;42502;40.732;-74.254;2022-12-18T05:10:17;100091.44;;;16.01;40.40
56630;BME280;42502;40.732;-74.254;2022-12-18T05:12:18;100093.06;;;16.02;40.39
56630;BME280;42502;40.732;-74.254;2022-12-18T05:14:19;100095.03;;;16.01;40.22
56630;BME280;42502;40.732;-74.254;2022-12-18T05:16:22;100085.38;;;15.98;40.22
56630;BME280;42502;40.732;-74.254;2022-12-18T05:18:24;100094.22;;;16.01;40.13
56630;BME280;42502;40.732;-74.254;2022-12-18T05:20:28;100095.03;;;16.01;40.11
56630;BME280;42502;40.732;-74.254;2022-12-18T05:22:29;100090.94;;;15.98;40.39
56630;BME280;42502;40.732;-74.254;2022-12-18T05:24:33;100090.63;;;16.00;39.93
56630;BME280;42502;40.732;-74.254;2022-12-18T05:26:36;100071.44;;;15.98;40.33
56630;BME280;42502;40.732;-74.254;2022-12-18T05:28:37;100077.84;;;15.99;40.03
56630;BME280;42502;40.732;-74.254;2022-12-18T05:30:38;100061.66;;;15.92;40.17
56630;BME280;42502;40.732;-74.254;2022-12-18T05:32:40;100060.97;;;15.95;40.04
56630;BME280;42502;40.732;-74.254;2022-12-18T05:34:43;100074.44;;;15.93;39.84
56630;BME280;42502;40.732;-74.254;2022-12-18T05:36:44;100086.88;;;15.96;40.06
56630;BME280;42502;40.732;-74.254;2022-12-18T05:38:45;100071.19;;;15.91;40.15
56630;BME280;42502;40.732;-74.254;2022-12-18T05:40:48;100089.66;;;15.96;40.09
56630;BME280;42502;40.732;-74.254;2022-12-18T05:42:49;100092.47;;;15.96;40.00
56630;BME280;42502;40.732;-74.254;2022-12-18T05:44:50;100090.34;;;15.93;40.21
56630;BME280;42502;40.732;-74.254;2022-12-18T05:46:50;100083.94;;;15.92;39.90
56630;BME280;42502;40.732;-74.254;2022-12-18T05:48:52;100097.53;;;15.94;39.74
56630;BME280;42502;40.732;-74.254;2022-12-18T05:50:52;100080.06;;;15.85;39.82
56630;BME280;42502;40.732;-74.254;2022-12-18T05:52:53;100095.91;;;15.93;40.00
56630;BME280;42502;40.732;-74.254;2022-12-18T05:54:54;100104.28;;;15.93;40.35
56630;BME280;42502;40.732;-74.254;2022-12-18T05:56:55;100097.06;;;15.92;40.03
56630;BME280;42502;40.732;-74.254;2022-12-18T05:58:56;100091.34;;;15.88;39.96
56630;BME280;42502;40.732;-74.254;2022-12-18T06:00:57;100097.41;;;15.90;40.00
56630;BME280;42502;40.732;-74.254;2022-12-18T06:02:59;100096.59;;;15.90;40.09
56630;BME280;42502;40.732;-74.254;2022-12-18T06:05:00;100101.66;;;15.88;40.12
56630;BME280;42502;40.732;-74.254;2022-12-18T06:07:00;100093.31;;;15.88;39.71
56630;BME280;42502;40.732;-74.254;2022-12-18T06:09:02;100094.94;;;15.89;40.01
56630;BME280;42502;40.732;-74.254;2022-12-18T06:11:08;100090.53;;;15.88;40.04
56630;BME280;42502;40.732;-74.254;2022-12-18T06:13:09;100086.59;;;15.89;39.74
56630;BME280;42502;40.732;-74.254;2022-12-18T06:15:12;100082.16;;;15.88;39.70
56630;BME280;42502;40.732;-74.254;2022-12-18T06:17:13;100073.81;;;15.88;39.89
56630;BME280;42502;40.732;-74.254;2022-12-18T06:19:16;100079.72;;;15.86;39.70
56630;BME280;42502;40.732;-74.254;2022-12-18T06:21:16;100080.88;;;15.85;39.57
56630;BME280;42502;40.732;-74.254;2022-12-18T06:23:17;100087.59;;;15.84;39.92
56630;BME280;42502;40.732;-74.254;2022-12-18T06:25:19;100106.28;;;15.84;40.13
56630;BME280;42502;40.732;-74.254;2022-12-18T06:27:20;100111.88;;;15.84;40.04
56630;BME280;42502;40.732;-74.254;2022-12-18T06:29:21;100109.75;;;15.80;39.77
56630;BME280;42502;40.732;-74.254;2022-12-18T06:31:21;100101.69;;;15.79;39.70
56630;BME280;42502;40.732;-74.254;2022-12-18T06:33:28;100108.56;;;15.81;39.94
56630;BME280;42502;40.732;-74.254;2022-12-18T06:35:29;100116.94;;;15.81;39.83
56630;BME280;42502;40.732;-74.254;2022-12-18T06:37:31;100120.56;;;15.82;39.75
56630;BME280;42502;40.732;-74.254;2022-12-18T06:39:32;100120.06;;;15.80;39.90
56630;BME280;42502;40.732;-74.254;2022-12-18T06:41:32;100115.63;;;15.79;39.52
56630;BME280;42502;40.732;-74.254;2022-12-18T06:43:33;100119.25;;;15.79;39.78
56630;BME280;42502;40.732;-74.254;2022-12-18T06:45:34;100112.84;;;15.79;39.58
56630;BME280;42502;40.732;-74.254;2022-12-18T06:47:35;100103.19;;;15.76;39.54
56630;BME280;42502;40.732;-74.254;2022-12-18T06:49:36;100099.25;;;15.77;39.80
56630;BME280;42502;40.732;-74.254;2022-12-18T06:51:37;100094.81;;;15.76;39.41
56630;BME280;42502;40.732;-74.254;2022-12-18T06:53:38;100074.50;;;15.76;39.61
56630;BME280;42502;40.732;-74.254;2022-12-18T06:55:39;100093.19;;;15.75;39.47
56630;BME280;42502;40.732;-74.254;2022-12-18T06:57:40;100105.97;;;15.76;39.63
56630;BME280;42502;40.732;-74.254;2022-12-18T06:59:41;100113.81;;;15.74;39.49
56630;BME280;42502;40.732;-74.254;2022-12-18T07:01:42;100126.13;;;15.73;39.71
56630;BME280;42502;40.732;-74.254;2022-12-18T07:03:55;100127.28;;;15.72;39.59
56630;BME280;42502;40.732;-74.254;2022-12-18T07:05:56;100132.03;;;15.72;39.57
56630;BME280;42502;40.732;-74.254;2022-12-18T07:08:00;100137.28;;;15.73;39.20
56630;BME280;42502;40.732;-74.254;2022-12-18T07:10:02;100135.81;;;15.67;39.48
56630;BME280;42502;40.732;-74.254;2022-12-18T07:12:03;100135.63;;;15.72;39.50
56630;BME280;42502;40.732;-74.254;2022-12-18T07:14:05;100145.97;;;15.72;39.46
56630;BME280;42502;40.732;-74.254;2022-12-18T07:16:11;100156.25;;;15.71;39.13
56630;BME280;42502;40.732;-74.254;2022-12-18T07:18:13;100151.53;;;15.72;39.50
56630;BME280;42502;40.732;-74.254;2022-12-18T07:20:16;100160.22;;;15.70;39.47
56630;BME280;42502;40.732;-74.254;2022-12-18T07:22:17;100157.25;;;15.67;39.38
56630;BME280;42502;40.732;-74.254;2022-12-18T07:24:18;100167.72;;;15.70;39.45
56630;BME280;42502;40.732;-74.254;2022-12-18T07:26:21;100168.91;;;15.69;39.20
56630;BME280;42502;40.732;-74.254;2022-12-18T07:28:22;100178.88;;;15.70;39.14
56630;BME280;42502;40.732;-74.254;2022-12-18T07:30:25;100173.16;;;15.66;39.08
56630;BME280;42502;40.732;-74.254;2022-12-18T07:32:26;100172.69;;;15.64;39.47
56630;BME280;42502;40.732;-74.254;2022-12-18T07:34:27;100174.31;;;15.65;39.49
56630;BME280;42502;40.732;-74.254;2022-12-18T07:36:28;100183.16;;;15.67;39.37
56630;BME280;42502;40.732;-74.254;2022-12-18T07:38:29;100177.28;;;15.60;39.26
56630;BME280;42502;40.732;-74.254;2022-12-18T07:40:30;100146.69;;;15.42;39.34
56630;BME280;42502;40.732;-74.254;2022-12-18T07:42:31;100188.22;;;15.65;39.60
56630;BME280;42502;40.732;-74.254;2022-12-18T07:44:32;100199.38;;;15.65;39.30
56630;BME280;42502;40.732;-74.254;2022-12-18T07:46:33;100202.16;;;15.65;39.16
56630;BME280;42502;40.732;-74.254;2022-12-18T07:48:34;100206.91;;;15.64;39.19
56630;BME280;42502;40.732;-74.254;2022-12-18T07:50:35;100210.03;;;15.63;39.29
56630;BME280;42502;40.732;-74.254;2022-12-18T07:52:36;100206.25;;;15.59;39.00
56630;BME280;42502;40.732;-74.254;2022-12-18T07:54:46;100202.81;;;15.62;39.20
56630;BME280;42502;40.732;-74.254;2022-12-18T07:56:49;100214.78;;;15.62;39.22
56630;BME280;42502;40.732;-74.254;2022-12-18T07:58:50;100201.19;;;15.61;39.27
56630;BME280;42502;40.732;-74.254;2022-12-18T08:00:51;100197.91;;;15.59;39.03
56630;BME280;42502;40.732;-74.254;2022-12-18T08:02:52;100201.19;;;15.61;39.16
56630;BME280;42502;40.732;-74.254;2022-12-18T08:04:53;100202.66;;;15.58;39.19
56630;BME280;42502;40.732;-74.254;2022-12-18T08:06:57;100203.00;;;15.57;39.12
56630;BME280;42502;40.732;-74.254;2022-12-18T08:08:58;100204.66;;;15.58;39.10
56630;BME280;42502;40.732;-74.254;2022-12-18T08:10:59;100206.59;;;15.57;39.03
56630;BME280;42502;40.732;-74.254;2022-12-18T08:13:00;100200.22;;;15.57;39.03
56630;BME280;42502;40.732;-74.254;2022-12-18T08:15:04;100201.34;;;15.56;39.14
56630;BME280;42502;40.732;-74.254;2022-12-18T08:17:05;100191.72;;;15.53;39.38
56630;BME280;42502;40.732;-74.254;2022-12-18T08:19:06;100184.03;;;15.50;38.91
56630;BME280;42502;40.732;-74.254;2022-12-18T08:21:09;100194.19;;;15.55;38.93
56630;BME280;42502;40.732;-74.254;2022-12-18T08:23:12;100178.59;;;15.54;39.17
56630;BME280;42502;40.732;-74.254;2022-12-18T08:25:13;100168.94;;;15.51;39.01
56630;BME280;42502;40.732;-74.254;2022-12-18T08:27:14;100167.47;;;15.54;38.85
56630;BME280;42502;40.732;-74.254;2022-12-18T08:29:15;100156.19;;;15.50;38.80
56630;BME280;42502;40.732;-74.254;2022-12-18T08:31:22;100164.22;;;15.52;38.89
56630;BME280;42502;40.732;-74.254;2022-12-18T08:33:23;100160.25;;;15.53;38.91
56630;BME280;42502;40.732;-74.254;2022-12-18T08:35:24;100156.81;;;15.47;39.03
56630;BME280;42502;40.732;-74.254;2022-12-18T08:37:25;100153.06;;;15.52;38.95
56630;BME280;42502;40.732;-74.254;2022-12-18T08:39:26;100153.72;;;15.49;38.99
56630;BME280;42502;40.732;-74.254;2022-12-18T08:41:27;100154.38;;;15.45;38.93
56630;BME280;42502;40.732;-74.254;2022-12-18T08:43:28;100159.28;;;15.49;38.99
56630;BME280;42502;40.732;-74.254;2022-12-18T08:45:47;100149.66;;;15.46;38.93
56630;BME280;42502;40.732;-74.254;2022-12-18T08:48:03;100148.00;;;15.45;38.78
56630;BME280;42502;40.732;-74.254;2022-12-18T08:50:04;100156.03;;;15.46;38.71
56630;BME280;42502;40.732;-74.254;2022-12-18T08:52:11;100150.31;;;15.43;38.74
56630;BME280;42502;40.732;-74.254;2022-12-18T08:54:12;100161.59;;;15.46;38.89
56630;BME280;42502;40.732;-74.254;2022-12-18T08:56:17;100149.31;;;15.39;38.93
56630;BME280;42502;40.732;-74.254;2022-12-18T08:58:18;100149.97;;;15.44;38.95
56630;BME280;42502;40.732;-74.254;2022-12-18T09:00:19;100153.56;;;15.45;38.94
56630;BME280;42502;40.732;-74.254;2022-12-18T09:02:23;100149.13;;;15.44;39.03
56630;BME280;42502;40.732;-74.254;2022-12-18T09:04:24;100152.75;;;15.44;38.92
56630;BME280;42502;40.732;-74.254;2022-12-18T09:06:25;100152.25;;;15.42;38.72
56630;BME280;42502;40.732;-74.254;2022-12-18T09:08:27;100158.66;;;15.43;39.28
56630;BME280;42502;40.732;-74.254;2022-12-18T09:10:31;100155.38;;;15.41;38.84
56630;BME280;42502;40.732;-74.254;2022-12-18T09:12:32;100170.13;;;15.41;38.87
56630;BME280;42502;40.732;-74.254;2022-12-18T09:14:34;100170.13;;;15.41;38.74
56630;BME280;42502;40.732;-74.254;2022-12-18T09:16:35;100165.69;;;15.40;38.91
56630;BME280;42502;40.732;-74.254;2022-12-18T09:18:35;100158.81;;;15.38;38.72
56630;BME280;42502;40.732;-74.254;2022-12-18T09:20:37;100146.88;;;15.37;38.69
56630;BME280;42502;40.732;-74.254;2022-12-18T09:22:41;100139.53;;;15.33;38.75
56630;BME280;42502;40.732;-74.254;2022-12-18T09:24:42;100142.78;;;15.35;38.64
56630;BME280;42502;40.732;-74.254;2022-12-18T09:26:43;100145.22;;;15.36;38.71
56630;BME280;42502;40.732;-74.254;2022-12-18T09:28:44;100149.84;;;15.32;38.79
56630;BME280;42502;40.732;-74.254;2022-12-18T09:30:47;100167.03;;;15.34;38.83
56630;BME280;42502;40.732;-74.254;2022-12-18T09:32:49;100160.31;;;15.35;38.64
56630;BME280;42502;40.732;-74.254;2022-12-18T09:34:50;100154.75;;;15.35;38.71
56630;BME280;42502;40.732;-74.254;2022-12-18T09:36:50;100155.56;;;15.36;38.61
56630;BME280;42502;40.732;-74.254;2022-12-18T09:38:51;100155.88;;;15.34;38.64
56630;BME280;42502;40.732;-74.254;2022-12-18T09:41:26;100157.03;;;15.33;38.57
56630;BME280;42502;40.732;-74.254;2022-12-18T09:43:36;100152.63;;;15.32;38.62
56630;BME280;42502;40.732;-74.254;2022-12-18T09:45:41;100155.09;;;15.34;38.83
56630;BME280;42502;40.732;-74.254;2022-12-18T09:47:45;100153.44;;;15.33;38.46
56630;BME280;42502;40.732;-74.254;2022-12-18T09:49:52;100160.97;;;15.32;38.66
56630;BME280;42502;40.732;-74.254;2022-12-18T09:52:08;100159.34;;;15.31;38.82
56630;BME280;42502;40.732;-74.254;2022-12-18T09:54:30;100156.41;;;15.27;38.72
56630;BME280;42502;40.732;-74.254;2022-12-18T09:56:36;100156.56;;;15.31;38.87
56630;BME280;42502;40.732;-74.254;2022-12-18T09:59:03;100161.66;;;15.29;38.81
56630;BME280;42502;40.732;-74.254;2022-12-18T10:01:10;100162.44;;;15.30;38.58
56630;BME280;42502;40.732;-74.254;2022-12-18T10:03:14;100162.44;;;15.30;38.68
56630;BME280;42502;40.732;-74.254;2022-12-18T10:05:35;100154.63;;;15.23;38.31
56630;BME280;42502;40.732;-74.254;2022-12-18T10:08:02;100167.88;;;15.26;38.60
56630;BME280;42502;40.732;-74.254;2022-12-18T10:10:23;100165.09;;;15.26;38.78
56630;BME280;42502;40.732;-74.254;2022-12-18T10:12:43;100160.66;;;15.25;38.44
56630;BME280;42502;40.732;-74.254;2022-12-18T10:19:45;100180.13;;;15.25;38.56
56630;BME280;42502;40.732;-74.254;2022-12-18T10:22:09;100176.88;;;15.23;38.60
56630;BME280;42502;40.732;-74.254;2022-12-18T10:24:23;100175.91;;;15.19;38.54
56630;BME280;42502;40.732;-74.254;2022-12-18T10:26:31;100180.47;;;15.23;38.62
56630;BME280;42502;40.732;-74.254;2022-12-18T10:28:36;100171.97;;;15.20;38.27
56630;BME280;42502;40.732;-74.254;2022-12-18T10:30:38;100170.00;;;15.20;38.75
56630;BME280;42502;40.732;-74.254;2022-12-18T10:32:39;100173.13;;;15.19;38.71
56630;BME280;42502;40.732;-74.254;2022-12-18T10:34:40;100175.91;;;15.19;38.58
56630;BME280;42502;40.732;-74.254;2022-12-18T10:36:45;100175.72;;;15.15;38.45
56630;BME280;42502;40.732;-74.254;2022-12-18T10:38:51;100191.75;;;15.18;38.43
56630;BME280;42502;40.732;-74.254;2022-12-18T10:40:59;100190.94;;;15.18;38.60
56630;BME280;42502;40.732;-74.254;2022-12-18T10:43:04;100187.34;;;15.17;38.62
56630;BME280;42502;40.732;-74.254;2022-12-18T10:45:16;100194.06;;;15.16;38.61
56630;BME280;42502;40.732;-74.254;2022-12-18T10:47:20;100188.16;;;15.18;38.55
56630;BME280;42502;40.732;-74.254;2022-12-18T10:49:29;100185.22;;;15.14;38.42
56630;BME280;42502;40.732;-74.254;2022-12-18T10:51:33;100190.47;;;15.16;38.82
56630;BME280;42502;40.732;-74.254;2022-12-18T10:53:37;100194.38;;;15.15;38.33
56630;BME280;42502;40.732;-74.254;2022-12-18T10:55:39;100191.13;;;15.13;38.58
56630;BME280;42502;40.732;-74.254;2022-12-18T10:57:40;100189.16;;;15.13;38.25
56630;BME280;42502;40.732;-74.254;2022-12-18T10:59:51;100194.22;;;15.11;38.37
56630;BME280;42502;40.732;-74.254;2022-12-18T11:01:57;100196.69;;;15.13;38.68
56630;BME280;42502;40.732;-74.254;2022-12-18T11:04:01;100188.34;;;15.13;38.28